Arcata Airport
KACV : now visible

Airfield :











YOU CAN JOIN US ON...

 
LOGIN :

Register | Disclaimer

   EN    FR    IT 

 









Legend :    VFR   Marginal VFR   IFR   Intensive IFR   Very Intensive IFR
Visi :
Ceiling :
>= 8 km
>= 3000ft
5 to 8 km
1000 to 3000 ft
1500m to 5 km
500 to 1000 ft
800 to 1500m
200 to 500 ft
< 800m
< 200 ft
Symbols :   Thunderstorms  Fog  Heavy snow  Heavy precipitations  Wind > 20 kt






- Airport Elevation : 221 ft
- IATA code : ACV


KACV - Arcata

CURRENT METAR :
  • 190753Z AUTO 13006KT 10SM BKN004 OVC014 14/13 A3003 RMK AO2 SLP173 T01390133 401890133

EXPIRED METARs :
  • 190653Z AUTO 18007KT 7SM OVC003 13/13 A3003 RMK AO2 RAB41E51 SLP172 P0000 T01330128
  • 190636Z AUTO 18006KT 8SM OVC003 13/13 A3003 RMK AO2 T01330128
  • 190553Z AUTO 22005KT 10SM OVC007 14/13 A3001 RMK AO2 SLP166 T01440133 10167 20133 53008
  • 190453Z AUTO 14006KT 10SM OVC005 14/13 A3000 RMK AO2 SLP162 T01390133

TAF KACV
Valid from the 19 at 06:00 until the 20 at 06:00 UTC


190542Z 1906/2006 18005KT 6SM BR BKN007 OVC010
FM191000 14003KT 4SM -SHRA BR BKN010 OVC015
FM191500 15003KT 6SM BR BKN015
FM192000 31010KT P6SM SCT020
FM200400 33007KT 6SM BR SCT007
KZSE FIR / North America



MET'MAP, your aeronautical weather chart ! - Copyright ORBIFLY December 2007 - Disclaimer

ORBIFLY MET'MAP TEAM :

Programming & Development : Alexandra Zaïnal
Concept & original design : Baudouin d'Aumeries
Assistance for programming : Marc-Olivier Méhu
Technical & hardware support : Manuel Goepfert

Contact : metmap@orbifly.com




SOURCES & CREDITS :

   NOAA       Earth
Advisory